Aviation Digital Data Service (ADDS)

Output produced by METARs form (2051 UTC 24 June 2018)
found at http://www.aviationweather.gov/adds/metars/
 
TAF HUEN 241700Z 2418/2524 19005KT 9999 FEW021 FEW023CB 
     BECMG 2421/2424 32005KT FEW020 FEW022CB SCT120 
     TEMPO 2501/2506 VRB12KT 8000 -TSRA SCT018 FEW020CB BKN100 
     BECMG 2508/2512 17008KT 9999 FEW023 FEW025CB SCT150 FM 251700 21005KT FEW021 FEW023CB SCT130 
     BECMG 2521/2524 35006KT FEW020 FEW022CB SCT120
       
TAF HUEN 241700Z 2418/2524 19005KT 9999 FEW021 FEW023CB 
     BECMG 2421/2424 32005KT FEW020 FEW022CB SCT120 
     TEMPO 2501/2506 VRB12KT 8000 -TSRA SCT018 FEW020CB BKN100 
     BECMG 2508/2512 17008KT 9999 FEW023 FEW025CB SCT150 FM 251700 21005KT FEW021 FEW023CB SCT130 
     BECMG 2521/2524 35006KT FEW020 FEW022CB SCT120